To NAV CANADA Home Page Login to a new session Search on AWWS site Disclaimer Vers la page française équivalente Tips FAQ What's new on the site To the Forecasts and Observations / NOTAM section To "File a Flight Plan" website Publications and other links Update of the User's profile FIC Telephone Numbers My Weather Data Folder Route Weather Data Regional Weather Data Local Weather Data To the Forecasts and Observations / NOTAM section
Request Generated 05/17/2021 at 21:24:10 UTC . Weather information available at that time is displayed.

METAR/TAF

VICTORIA INTL/BC    

METAR CYYJ 172100Z 13014G23KT 20SM FEW045 FEW140 OVC240 15/07 A2989 RMK SC1AC1CI7 SC TR SLP122 DENSITY ALT 100FT=
METAR CYYJ 172000Z 12011KT 20SM FEW045 SCT150 OVC240 15/07 A2989 RMK SC1AC4CI4 SC TR SLP125 DENSITY ALT 100FT=
METAR CYYJ 171900Z 14009KT 20SM FEW070 SCT180 BKN240 15/06 A2991 RMK AC1AC4CI3 AC TR SLP129 DENSITY ALT 200FT=

TAF CYYJ 171739Z 1718/1818 VRB03KT P6SM SCT060 BKN120 OVC200
FM172100 16012KT P6SM SCT030 BKN060 OVC120 TEMPO 1721/1723 P6SM
-SHRA BKN030 OVC060
FM172300 18012KT P6SM OVC030 TEMPO 1723/1803 5SM -SHRA BR OVC020
FM180300 24008KT P6SM SCT020 BKN060 OVC120 TEMPO 1803/1809 BKN020
OVC060
BECMG 1804/1806 24015G25KT
FM180900 25015G25KT P6SM BKN030 TEMPO 1809/1818 BKN020
RMK NXT FCST BY 180000Z=
Your time UTC time
Weather data provided by Environment Canada and NAV CANADA